createdAt,value
2019-05-03T00:03:39.349Z,8.3
2019-05-03T00:09:12.768Z,8.2
2019-05-03T00:14:46.068Z,8.1
2019-05-03T00:20:19.484Z,7.9
2019-05-03T00:25:52.674Z,7.9
2019-05-03T00:31:25.970Z,7.9
2019-05-03T00:36:59.209Z,7.9
2019-05-03T00:42:32.376Z,7.8
2019-05-03T00:48:05.581Z,7.7
2019-05-03T00:53:38.573Z,7.7
2019-05-03T00:59:12.639Z,7.6
2019-05-03T01:04:44.934Z,7.5
2019-05-03T01:10:18.087Z,7.5
2019-05-03T01:15:51.942Z,7.5
2019-05-03T01:21:24.355Z,7.4
2019-05-03T01:26:57.565Z,7.4
2019-05-03T01:32:32.680Z,7.4
2019-05-03T01:38:03.948Z,7.4
2019-05-03T01:43:37.243Z,7.4
2019-05-03T01:49:12.142Z,7.4
2019-05-03T01:54:43.559Z,7.4
2019-05-03T02:00:16.917Z,7.3
2019-05-03T02:05:49.652Z,7.3
2019-05-03T02:11:22.763Z,7.3
2019-05-03T02:16:55.858Z,7.3
2019-05-03T02:22:29.060Z,7.3
2019-05-03T02:28:02.291Z,7.3
2019-05-03T02:33:35.439Z,7.2
2019-05-03T02:39:08.274Z,7.3
2019-05-03T02:44:41.168Z,7.3
2019-05-03T02:50:16.627Z,7.3
2019-05-03T02:55:47.224Z,7.2
2019-05-03T03:01:19.957Z,7.3
2019-05-03T03:06:55.435Z,7.3
2019-05-03T03:12:25.719Z,7.3
2019-05-03T03:17:57.234Z,7.2
2019-05-03T03:23:29.998Z,7.3
2019-05-03T03:29:05.282Z,7.2
2019-05-03T03:34:38.501Z,7.2
2019-05-03T03:40:07.262Z,7.2
2019-05-03T03:45:39.622Z,7.2
2019-05-03T03:51:11.999Z,7.2
2019-05-03T03:56:55.761Z,7.2
2019-05-03T04:02:17.648Z,7.2
2019-05-03T04:07:50.250Z,7.2
2019-05-03T04:13:25.298Z,7.2
2019-05-03T04:18:55.273Z,7.2
2019-05-03T04:24:28.010Z,7.3
2019-05-03T04:30:00.793Z,7.3
2019-05-03T04:35:36.257Z,7.3
2019-05-03T04:41:06.228Z,7.3
2019-05-03T04:46:38.423Z,7.4
2019-05-03T04:52:10.847Z,7.4
2019-05-03T04:57:46.649Z,7.5
2019-05-03T05:03:15.798Z,7.5
2019-05-03T05:08:48.604Z,7.5
2019-05-03T05:14:21.650Z,7.5
2019-05-03T05:19:54.877Z,7.5
2019-05-03T05:25:27.287Z,7.5
2019-05-03T05:31:00.205Z,7.6
2019-05-03T05:36:34.711Z,7.6
2019-05-03T05:42:05.325Z,7.7
2019-05-03T05:47:37.790Z,7.6
2019-05-03T05:53:10.229Z,7.7
2019-05-03T05:58:44.884Z,7.6
2019-05-03T06:04:15.782Z,7.7
2019-05-03T06:09:48.830Z,7.8
2019-05-03T06:15:21.252Z,7.8
2019-05-03T06:20:54.344Z,7.9
2019-05-03T06:26:26.375Z,8
2019-05-03T06:31:58.930Z,8.3
2019-05-03T06:37:31.536Z,8.7
2019-05-03T06:43:08.310Z,8.5
2019-05-03T06:48:31.946Z,8.5
2019-05-03T06:54:05.014Z,8.6
2019-05-03T06:59:37.495Z,8.6
2019-05-03T07:05:10.945Z,8.6
2019-05-03T07:10:44.723Z,8.8
2019-05-03T07:16:18.376Z,8.7
2019-05-03T07:21:52.060Z,8.5
2019-05-03T07:27:25.712Z,8.8
2019-05-03T07:32:59.429Z,8.8
2019-05-03T07:38:34.821Z,8.9
2019-05-03T07:44:06.724Z,9.1
2019-05-03T07:49:40.444Z,9.4
2019-05-03T07:55:14.926Z,9.2
2019-05-03T08:00:48.028Z,9.1
2019-05-03T08:06:21.736Z,9
2019-05-03T08:11:55.416Z,9.1
2019-05-03T08:17:29.237Z,9.2
2019-05-03T08:23:05.073Z,9.6
2019-05-03T08:28:36.613Z,9.5
2019-05-03T08:34:10.353Z,9.6
2019-05-03T08:39:44.711Z,10.1
2019-05-03T08:45:16.560Z,10.1
2019-05-03T08:50:49.658Z,9.7
2019-05-03T08:56:24.531Z,10.2
2019-05-03T09:01:56.636Z,10.2
2019-05-03T09:07:30.069Z,10
2019-05-03T09:13:06.004Z,10.3
2019-05-03T09:18:36.915Z,9.9
2019-05-03T09:24:10.565Z,10.4
2019-05-03T09:29:46.116Z,10.1
2019-05-03T09:35:29.531Z,10.5
2019-05-03T09:40:54.433Z,10.3
2019-05-03T09:46:26.378Z,11.1
2019-05-03T09:52:00.544Z,10.9
2019-05-03T09:57:34.848Z,10.5
2019-05-03T10:03:09.156Z,11.4
2019-05-03T10:08:45.340Z,11.1
2019-05-03T10:14:18.359Z,11.8
2019-05-03T10:19:54.703Z,11.5
2019-05-03T10:25:27.775Z,12.4
2019-05-03T10:31:07.010Z,11.3
2019-05-03T10:36:37.195Z,10.8
2019-05-03T10:42:11.613Z,11
2019-05-03T10:47:45.750Z,11.6
2019-05-03T10:53:19.832Z,11.6
2019-05-03T10:58:54.914Z,12.3
2019-05-03T11:04:28.774Z,11.7
2019-05-03T11:10:05.315Z,11.6
2019-05-03T11:15:37.866Z,11.8
2019-05-03T11:21:14.121Z,11.7
2019-05-03T11:26:46.869Z,11.8
2019-05-03T11:32:21.434Z,12
2019-05-03T11:37:55.947Z,11.9
2019-05-03T11:43:30.598Z,12.3
2019-05-03T11:49:05.663Z,13.6
2019-05-03T11:54:40.507Z,13.1
2019-05-03T12:00:15.796Z,13.1
2019-05-03T12:05:50.655Z,12.4
2019-05-03T12:11:25.391Z,12.2
2019-05-03T12:17:16.452Z,12.1
2019-05-03T12:22:35.871Z,12.2
2019-05-03T12:28:08.748Z,11.6
2019-05-03T12:33:45.725Z,12
2019-05-03T12:39:26.159Z,12.2
2019-05-03T12:44:52.010Z,12.2
2019-05-03T12:50:26.431Z,12.1
2019-05-03T12:56:00.744Z,11.6
2019-05-03T13:01:41.483Z,11.8
2019-05-03T13:07:09.136Z,11.6
2019-05-03T13:12:50.473Z,11.7
2019-05-03T13:18:17.319Z,11.8
2019-05-03T13:23:51.260Z,11.9
2019-05-03T13:29:25.581Z,11.9
2019-05-03T13:34:58.622Z,12.1
2019-05-03T13:40:32.626Z,12.5
2019-05-03T13:46:06.714Z,12.3
2019-05-03T13:51:40.876Z,11.9
2019-05-03T13:57:15.498Z,11.9
2019-05-03T14:02:49.162Z,11.9
2019-05-03T14:08:25.276Z,11.7
2019-05-03T14:13:57.440Z,11.5
2019-05-03T14:19:31.609Z,11
2019-05-03T14:25:05.617Z,11.3
2019-05-03T14:30:39.666Z,11.7
2019-05-03T14:36:15.801Z,11.7
2019-05-03T14:41:47.768Z,11.6
2019-05-03T14:47:22.102Z,11.8
2019-05-03T14:52:56.993Z,11.6
2019-05-03T14:58:30.687Z,11.5
2019-05-03T15:04:05.819Z,12
2019-05-03T15:09:39.157Z,13.1
2019-05-03T15:15:14.619Z,12.6
2019-05-03T15:20:48.182Z,13.8
2019-05-03T15:26:24.684Z,13.6
2019-05-03T15:31:56.923Z,12.8
2019-05-03T15:37:31.518Z,12.4
2019-05-03T15:43:05.943Z,12.5
2019-05-03T15:48:40.220Z,12.1
2019-05-03T15:54:15.295Z,12.3
2019-05-03T15:59:48.874Z,12.3
2019-05-03T16:05:24.921Z,12.6
2019-05-03T16:10:56.410Z,12.7
2019-05-03T16:16:29.909Z,12.5
2019-05-03T16:22:04.851Z,12.4
2019-05-03T16:27:37.886Z,12.2
2019-05-03T16:33:23.757Z,12.7
2019-05-03T16:38:45.157Z,12.8
2019-05-03T16:44:18.611Z,12.8
2019-05-03T16:49:52.013Z,12.7
2019-05-03T16:55:25.714Z,12.8
2019-05-03T17:00:58.788Z,12.5
2019-05-03T17:06:34.695Z,12.5
2019-05-03T17:12:06.504Z,12.5
2019-05-03T17:17:40.011Z,12.2
2019-05-03T17:23:15.412Z,12
2019-05-03T17:28:48.102Z,12
2019-05-03T17:34:21.920Z,11.9
2019-05-03T17:39:55.051Z,11.9
2019-05-03T17:45:28.121Z,11.5
2019-05-03T17:51:01.240Z,11.1
2019-05-03T17:56:35.056Z,11.1
2019-05-03T18:02:07.120Z,11
2019-05-03T18:07:40.049Z,11.1
2019-05-03T18:13:14.328Z,11.3
2019-05-03T18:24:19.952Z,11.4
2019-05-03T18:29:52.857Z,11.4
2019-05-03T18:35:25.816Z,11.2
2019-05-03T18:40:58.829Z,10.8
2019-05-03T18:46:31.450Z,10.6
2019-05-03T18:52:04.431Z,10.7
2019-05-03T18:57:36.990Z,10.6
2019-05-03T19:03:09.642Z,9.8
2019-05-03T19:08:44.677Z,10.3
2019-05-03T19:14:16.529Z,10.3
2019-05-03T19:19:50.043Z,10.4
2019-05-03T19:25:25.323Z,9.9
2019-05-03T19:30:57.335Z,9.8
2019-05-03T19:36:30.722Z,9.7
2019-05-03T19:42:04.179Z,9.7
2019-05-03T19:47:37.658Z,9.6
2019-05-03T19:53:11.029Z,9.9
2019-05-03T19:58:44.143Z,9.8
2019-05-03T20:04:17.196Z,9.7
2019-05-03T20:09:50.549Z,9.4
2019-05-03T20:15:23.875Z,9.4
2019-05-03T20:20:57.241Z,9.1
2019-05-03T20:26:29.956Z,9.8
2019-05-03T20:32:02.493Z,9.8
2019-05-03T20:37:35.301Z,9.9
2019-05-03T20:43:07.854Z,9.8
2019-05-03T20:48:40.341Z,10
2019-05-03T20:54:12.884Z,9.8
2019-05-03T20:59:49.430Z,9.6
2019-05-03T21:05:27.633Z,9.6
2019-05-03T21:10:50.801Z,9.7
2019-05-03T21:16:23.348Z,9.7
2019-05-03T21:21:55.901Z,9.3
2019-05-03T21:27:28.995Z,9.6
2019-05-03T21:33:01.545Z,9.2
2019-05-03T21:38:35.400Z,8.8
2019-05-03T21:44:06.600Z,8.4
2019-05-03T21:49:39.003Z,8.5
2019-05-03T21:55:11.713Z,8.5
2019-05-03T22:00:45.450Z,9.2
2019-05-03T22:06:18.408Z,9.1
2019-05-03T22:11:52.208Z,8.9
2019-05-03T22:17:25.351Z,8.9
2019-05-03T22:22:58.425Z,8.5
2019-05-03T22:28:31.715Z,8.5
2019-05-03T22:34:05.040Z,8
2019-05-03T22:39:38.236Z,8.6
2019-05-03T22:45:11.517Z,8
2019-05-03T22:50:44.935Z,7.7
2019-05-03T22:56:17.644Z,8.1
2019-05-03T23:01:50.609Z,8.1
2019-05-03T23:07:24.947Z,7.7
2019-05-03T23:12:57.138Z,7.7
2019-05-03T23:18:30.236Z,7.6
2019-05-03T23:24:02.774Z,8
2019-05-03T23:29:36.012Z,8.1
2019-05-03T23:35:09.360Z,8
2019-05-03T23:40:44.650Z,7.8
2019-05-03T23:46:15.848Z,7.4
2019-05-03T23:51:49.151Z,7.3
2019-05-03T23:57:22.347Z,7.5
